sensor_id;sensor_type;location;lat;lon;timestamp;P1;durP1;ratioP1;P2;durP2;ratioP2
53875;SDS011;39789;53.216;5.624;2023-03-25T00:00:59;29.08;;;5.75;;
53875;SDS011;39789;53.216;5.624;2023-03-25T00:03:26;22.45;;;4.60;;
53875;SDS011;39789;53.216;5.624;2023-03-25T00:05:58;24.17;;;5.18;;
53875;SDS011;39789;53.216;5.624;2023-03-25T00:08:23;24.73;;;4.82;;
53875;SDS011;39789;53.216;5.624;2023-03-25T00:10:51;20.13;;;5.70;;
53875;SDS011;39789;53.216;5.624;2023-03-25T00:13:18;24.50;;;6.45;;
53875;SDS011;39789;53.216;5.624;2023-03-25T00:15:46;34.25;;;6.00;;
53875;SDS011;39789;53.216;5.624;2023-03-25T00:18:12;17.50;;;5.78;;
53875;SDS011;39789;53.216;5.624;2023-03-25T00:20:38;26.63;;;5.07;;
53875;SDS011;39789;53.216;5.624;2023-03-25T00:23:05;26.45;;;5.57;;
53875;SDS011;39789;53.216;5.624;2023-03-25T00:25:31;26.63;;;5.30;;
53875;SDS011;39789;53.216;5.624;2023-03-25T00:27:57;33.58;;;6.15;;
53875;SDS011;39789;53.216;5.624;2023-03-25T00:30:23;18.48;;;4.82;;
53875;SDS011;39789;53.216;5.624;2023-03-25T00:32:49;20.10;;;5.07;;
53875;SDS011;39789;53.216;5.624;2023-03-25T00:35:20;30.98;;;5.30;;
53875;SDS011;39789;53.216;5.624;2023-03-25T00:37:46;22.13;;;4.97;;
53875;SDS011;39789;53.216;5.624;2023-03-25T00:40:16;21.23;;;5.60;;
53875;SDS011;39789;53.216;5.624;2023-03-25T00:42:41;20.30;;;4.50;;
53875;SDS011;39789;53.216;5.624;2023-03-25T00:45:09;27.63;;;5.35;;
53875;SDS011;39789;53.216;5.624;2023-03-25T00:47:38;20.70;;;5.20;;
53875;SDS011;39789;53.216;5.624;2023-03-25T00:50:05;26.10;;;4.75;;
53875;SDS011;39789;53.216;5.624;2023-03-25T00:52:31;21.60;;;5.65;;
53875;SDS011;39789;53.216;5.624;2023-03-25T00:54:57;29.50;;;4.65;;
53875;SDS011;39789;53.216;5.624;2023-03-25T00:57:22;30.52;;;5.47;;
53875;SDS011;39789;53.216;5.624;2023-03-25T00:59:48;27.80;;;5.97;;
53875;SDS011;39789;53.216;5.624;2023-03-25T01:02:14;22.75;;;5.00;;
53875;SDS011;39789;53.216;5.624;2023-03-25T01:04:43;24.55;;;5.10;;
53875;SDS011;39789;53.216;5.624;2023-03-25T01:07:09;22.67;;;5.82;;
53875;SDS011;39789;53.216;5.624;2023-03-25T01:09:37;28.90;;;5.65;;
53875;SDS011;39789;53.216;5.624;2023-03-25T01:12:03;31.65;;;5.70;;
53875;SDS011;39789;53.216;5.624;2023-03-25T01:14:29;24.20;;;5.25;;
53875;SDS011;39789;53.216;5.624;2023-03-25T01:16:57;23.00;;;5.50;;
53875;SDS011;39789;53.216;5.624;2023-03-25T01:19:23;26.10;;;5.07;;
53875;SDS011;39789;53.216;5.624;2023-03-25T01:21:49;20.52;;;6.38;;
53875;SDS011;39789;53.216;5.624;2023-03-25T01:24:15;39.90;;;5.10;;
53875;SDS011;39789;53.216;5.624;2023-03-25T01:26:41;24.42;;;5.32;;
53875;SDS011;39789;53.216;5.624;2023-03-25T01:29:08;18.90;;;5.15;;
53875;SDS011;39789;53.216;5.624;2023-03-25T01:31:34;34.42;;;6.60;;
53875;SDS011;39789;53.216;5.624;2023-03-25T01:34:03;24.90;;;5.78;;
53875;SDS011;39789;53.216;5.624;2023-03-25T01:36:29;25.63;;;5.95;;
53875;SDS011;39789;53.216;5.624;2023-03-25T01:38:55;24.15;;;5.70;;
53875;SDS011;39789;53.216;5.624;2023-03-25T01:41:24;23.92;;;5.90;;
53875;SDS011;39789;53.216;5.624;2023-03-25T01:44:07;26.52;;;6.03;;
53875;SDS011;39789;53.216;5.624;2023-03-25T01:46:42;26.30;;;5.78;;
53875;SDS011;39789;53.216;5.624;2023-03-25T01:49:10;30.67;;;6.50;;
53875;SDS011;39789;53.216;5.624;2023-03-25T01:51:41;27.15;;;6.90;;
53875;SDS011;39789;53.216;5.624;2023-03-25T01:54:11;36.42;;;6.20;;
53875;SDS011;39789;53.216;5.624;2023-03-25T01:56:41;36.72;;;6.43;;
53875;SDS011;39789;53.216;5.624;2023-03-25T01:59:10;33.08;;;7.50;;
53875;SDS011;39789;53.216;5.624;2023-03-25T02:01:39;36.22;;;7.18;;
53875;SDS011;39789;53.216;5.624;2023-03-25T02:04:09;33.08;;;6.10;;
53875;SDS011;39789;53.216;5.624;2023-03-25T02:06:45;25.73;;;6.47;;
53875;SDS011;39789;53.216;5.624;2023-03-25T02:09:18;26.48;;;6.32;;
53875;SDS011;39789;53.216;5.624;2023-03-25T02:11:46;25.27;;;6.10;;
53875;SDS011;39789;53.216;5.624;2023-03-25T02:14:16;30.80;;;6.07;;
53875;SDS011;39789;53.216;5.624;2023-03-25T02:16:59;22.90;;;5.82;;
53875;SDS011;39789;53.216;5.624;2023-03-25T02:22:35;21.15;;;5.60;;
53875;SDS011;39789;53.216;5.624;2023-03-25T02:40:21;27.13;;;5.45;;
53875;SDS011;39789;53.216;5.624;2023-03-25T02:43:00;29.27;;;6.95;;
53875;SDS011;39789;53.216;5.624;2023-03-25T02:45:31;28.73;;;5.85;;
53875;SDS011;39789;53.216;5.624;2023-03-25T02:48:10;30.33;;;5.40;;
53875;SDS011;39789;53.216;5.624;2023-03-25T02:50:43;29.33;;;6.43;;
53875;SDS011;39789;53.216;5.624;2023-03-25T02:53:17;35.20;;;5.88;;
53875;SDS011;39789;53.216;5.624;2023-03-25T02:55:48;24.13;;;6.13;;
53875;SDS011;39789;53.216;5.624;2023-03-25T02:58:18;30.30;;;6.35;;
53875;SDS011;39789;53.216;5.624;2023-03-25T03:00:45;23.83;;;5.60;;
53875;SDS011;39789;53.216;5.624;2023-03-25T03:03:13;32.92;;;6.78;;
53875;SDS011;39789;53.216;5.624;2023-03-25T03:05:45;29.85;;;5.65;;
53875;SDS011;39789;53.216;5.624;2023-03-25T03:08:19;29.77;;;6.30;;
53875;SDS011;39789;53.216;5.624;2023-03-25T03:14:24;20.45;;;6.72;;
53875;SDS011;39789;53.216;5.624;2023-03-25T03:17:11;27.13;;;5.68;;
53875;SDS011;39789;53.216;5.624;2023-03-25T03:19:59;22.17;;;5.20;;
53875;SDS011;39789;53.216;5.624;2023-03-25T03:22:34;19.95;;;5.15;;
53875;SDS011;39789;53.216;5.624;2023-03-25T03:25:21;26.55;;;6.50;;
53875;SDS011;39789;53.216;5.624;2023-03-25T03:36:23;22.80;;;6.05;;
53875;SDS011;39789;53.216;5.624;2023-03-25T03:38:57;31.35;;;5.53;;
53875;SDS011;39789;53.216;5.624;2023-03-25T03:41:29;24.17;;;5.25;;
53875;SDS011;39789;53.216;5.624;2023-03-25T03:44:00;28.23;;;5.60;;
53875;SDS011;39789;53.216;5.624;2023-03-25T03:46:36;25.70;;;5.75;;
53875;SDS011;39789;53.216;5.624;2023-03-25T03:49:07;24.92;;;5.32;;
53875;SDS011;39789;53.216;5.624;2023-03-25T03:51:41;27.60;;;5.82;;
53875;SDS011;39789;53.216;5.624;2023-03-25T03:54:24;20.70;;;5.50;;
53875;SDS011;39789;53.216;5.624;2023-03-25T03:59:41;25.75;;;5.95;;
53875;SDS011;39789;53.216;5.624;2023-03-25T04:02:23;28.55;;;6.32;;
53875;SDS011;39789;53.216;5.624;2023-03-25T04:04:56;28.77;;;6.35;;
53875;SDS011;39789;53.216;5.624;2023-03-25T04:07:27;23.73;;;5.35;;
53875;SDS011;39789;53.216;5.624;2023-03-25T04:12:46;32.88;;;6.28;;
53875;SDS011;39789;53.216;5.624;2023-03-25T04:15:15;24.73;;;5.25;;
53875;SDS011;39789;53.216;5.624;2023-03-25T04:17:41;22.33;;;5.65;;
53875;SDS011;39789;53.216;5.624;2023-03-25T04:20:08;26.52;;;5.50;;
53875;SDS011;39789;53.216;5.624;2023-03-25T04:22:38;25.60;;;6.30;;
53875;SDS011;39789;53.216;5.624;2023-03-25T04:25:04;21.15;;;6.00;;
53875;SDS011;39789;53.216;5.624;2023-03-25T04:27:31;34.22;;;7.65;;
53875;SDS011;39789;53.216;5.624;2023-03-25T04:29:56;21.63;;;6.13;;
53875;SDS011;39789;53.216;5.624;2023-03-25T04:32:23;24.40;;;6.47;;
53875;SDS011;39789;53.216;5.624;2023-03-25T04:34:51;20.98;;;4.45;;
53875;SDS011;39789;53.216;5.624;2023-03-25T04:37:22;23.42;;;5.68;;
53875;SDS011;39789;53.216;5.624;2023-03-25T04:39:51;24.60;;;5.32;;
53875;SDS011;39789;53.216;5.624;2023-03-25T04:42:20;18.83;;;5.43;;
53875;SDS011;39789;53.216;5.624;2023-03-25T04:44:50;28.92;;;6.00;;
53875;SDS011;39789;53.216;5.624;2023-03-25T04:47:16;23.05;;;4.93;;
53875;SDS011;39789;53.216;5.624;2023-03-25T04:49:47;29.20;;;5.68;;
53875;SDS011;39789;53.216;5.624;2023-03-25T04:52:13;22.73;;;5.70;;
53875;SDS011;39789;53.216;5.624;2023-03-25T04:54:40;25.80;;;5.47;;
53875;SDS011;39789;53.216;5.624;2023-03-25T04:57:06;22.60;;;5.35;;
53875;SDS011;39789;53.216;5.624;2023-03-25T04:59:35;20.65;;;5.20;;
53875;SDS011;39789;53.216;5.624;2023-03-25T05:02:01;27.20;;;5.82;;
53875;SDS011;39789;53.216;5.624;2023-03-25T05:04:30;18.33;;;5.18;;
53875;SDS011;39789;53.216;5.624;2023-03-25T05:06:56;24.13;;;4.78;;
53875;SDS011;39789;53.216;5.624;2023-03-25T05:09:22;22.90;;;4.53;;
53875;SDS011;39789;53.216;5.624;2023-03-25T05:11:48;19.48;;;5.63;;
53875;SDS011;39789;53.216;5.624;2023-03-25T05:14:16;24.58;;;5.32;;
53875;SDS011;39789;53.216;5.624;2023-03-25T05:16:44;24.95;;;4.82;;
53875;SDS011;39789;53.216;5.624;2023-03-25T05:19:11;18.17;;;4.85;;
53875;SDS011;39789;53.216;5.624;2023-03-25T05:21:39;17.40;;;5.05;;
53875;SDS011;39789;53.216;5.624;2023-03-25T05:24:10;18.88;;;5.20;;
53875;SDS011;39789;53.216;5.624;2023-03-25T05:26:37;24.05;;;5.65;;
53875;SDS011;39789;53.216;5.624;2023-03-25T05:29:06;28.15;;;6.10;;
53875;SDS011;39789;53.216;5.624;2023-03-25T05:31:33;22.00;;;5.25;;
53875;SDS011;39789;53.216;5.624;2023-03-25T05:33:59;30.33;;;5.28;;
53875;SDS011;39789;53.216;5.624;2023-03-25T05:36:25;26.52;;;5.88;;
53875;SDS011;39789;53.216;5.624;2023-03-25T05:38:51;24.70;;;6.70;;
53875;SDS011;39789;53.216;5.624;2023-03-25T05:41:21;24.95;;;6.05;;
53875;SDS011;39789;53.216;5.624;2023-03-25T05:43:56;23.45;;;5.75;;
53875;SDS011;39789;53.216;5.624;2023-03-25T05:46:22;23.15;;;4.97;;
53875;SDS011;39789;53.216;5.624;2023-03-25T05:48:48;24.00;;;6.07;;
53875;SDS011;39789;53.216;5.624;2023-03-25T05:51:17;29.77;;;5.38;;
53875;SDS011;39789;53.216;5.624;2023-03-25T05:53:46;18.02;;;5.30;;
53875;SDS011;39789;53.216;5.624;2023-03-25T05:56:19;21.95;;;5.35;;
53875;SDS011;39789;53.216;5.624;2023-03-25T05:58:50;19.70;;;4.63;;
53875;SDS011;39789;53.216;5.624;2023-03-25T06:01:17;26.08;;;5.63;;
53875;SDS011;39789;53.216;5.624;2023-03-25T06:03:45;23.25;;;5.15;;
53875;SDS011;39789;53.216;5.624;2023-03-25T06:06:12;20.70;;;5.85;;
53875;SDS011;39789;53.216;5.624;2023-03-25T06:08:46;19.17;;;4.97;;
53875;SDS011;39789;53.216;5.624;2023-03-25T06:11:17;27.15;;;4.68;;
53875;SDS011;39789;53.216;5.624;2023-03-25T06:13:45;18.67;;;4.72;;
53875;SDS011;39789;53.216;5.624;2023-03-25T06:16:15;20.60;;;4.93;;
53875;SDS011;39789;53.216;5.624;2023-03-25T06:18:47;17.80;;;5.30;;
53875;SDS011;39789;53.216;5.624;2023-03-25T06:21:21;21.08;;;4.63;;
53875;SDS011;39789;53.216;5.624;2023-03-25T06:23:47;25.75;;;5.32;;
53875;SDS011;39789;53.216;5.624;2023-03-25T06:26:14;29.15;;;4.65;;
53875;SDS011;39789;53.216;5.624;2023-03-25T06:28:40;23.27;;;4.88;;
53875;SDS011;39789;53.216;5.624;2023-03-25T06:33:41;18.60;;;4.32;;
53875;SDS011;39789;53.216;5.624;2023-03-25T06:36:08;24.08;;;5.57;;
53875;SDS011;39789;53.216;5.624;2023-03-25T06:38:35;21.42;;;4.35;;
53875;SDS011;39789;53.216;5.624;2023-03-25T06:41:01;19.42;;;4.65;;
53875;SDS011;39789;53.216;5.624;2023-03-25T06:43:27;19.10;;;4.75;;
53875;SDS011;39789;53.216;5.624;2023-03-25T06:45:53;23.95;;;4.30;;
53875;SDS011;39789;53.216;5.624;2023-03-25T06:48:18;14.38;;;3.83;;
53875;SDS011;39789;53.216;5.624;2023-03-25T06:50:44;22.08;;;4.38;;
53875;SDS011;39789;53.216;5.624;2023-03-25T06:53:10;21.10;;;5.13;;
53875;SDS011;39789;53.216;5.624;2023-03-25T06:55:36;26.98;;;4.90;;
53875;SDS011;39789;53.216;5.624;2023-03-25T06:58:02;24.52;;;4.45;;
53875;SDS011;39789;53.216;5.624;2023-03-25T07:00:28;20.55;;;6.00;;
53875;SDS011;39789;53.216;5.624;2023-03-25T07:02:54;28.00;;;5.43;;
53875;SDS011;39789;53.216;5.624;2023-03-25T07:05:20;16.85;;;4.55;;
53875;SDS011;39789;53.216;5.624;2023-03-25T07:07:46;21.85;;;4.35;;
53875;SDS011;39789;53.216;5.624;2023-03-25T07:10:11;25.27;;;5.47;;
53875;SDS011;39789;53.216;5.624;2023-03-25T07:12:39;19.10;;;3.88;;
53875;SDS011;39789;53.216;5.624;2023-03-25T07:15:05;19.77;;;3.80;;
53875;SDS011;39789;53.216;5.624;2023-03-25T07:17:31;22.58;;;5.72;;
53875;SDS011;39789;53.216;5.624;2023-03-25T07:19:57;17.67;;;4.10;;
53875;SDS011;39789;53.216;5.624;2023-03-25T07:22:22;18.90;;;4.88;;
53875;SDS011;39789;53.216;5.624;2023-03-25T07:24:48;27.98;;;4.50;;
53875;SDS011;39789;53.216;5.624;2023-03-25T07:27:15;19.20;;;4.78;;
53875;SDS011;39789;53.216;5.624;2023-03-25T07:29:40;23.42;;;4.65;;
53875;SDS011;39789;53.216;5.624;2023-03-25T07:32:06;18.17;;;4.22;;
53875;SDS011;39789;53.216;5.624;2023-03-25T07:34:32;18.30;;;4.40;;
53875;SDS011;39789;53.216;5.624;2023-03-25T07:36:58;32.38;;;5.75;;
53875;SDS011;39789;53.216;5.624;2023-03-25T07:39:23;18.00;;;4.22;;
53875;SDS011;39789;53.216;5.624;2023-03-25T07:41:50;24.92;;;4.15;;
53875;SDS011;39789;53.216;5.624;2023-03-25T07:44:16;21.42;;;4.15;;
53875;SDS011;39789;53.216;5.624;2023-03-25T07:46:44;21.67;;;4.10;;
53875;SDS011;39789;53.216;5.624;2023-03-25T07:49:10;18.85;;;4.18;;
53875;SDS011;39789;53.216;5.624;2023-03-25T07:51:36;13.60;;;4.20;;
53875;SDS011;39789;53.216;5.624;2023-03-25T07:54:01;21.85;;;4.95;;
53875;SDS011;39789;53.216;5.624;2023-03-25T07:56:27;21.38;;;5.05;;
53875;SDS011;39789;53.216;5.624;2023-03-25T07:58:53;16.02;;;4.38;;
53875;SDS011;39789;53.216;5.624;2023-03-25T08:01:18;20.17;;;5.55;;
53875;SDS011;39789;53.216;5.624;2023-03-25T08:03:44;23.33;;;5.05;;
53875;SDS011;39789;53.216;5.624;2023-03-25T08:06:10;23.55;;;4.85;;
53875;SDS011;39789;53.216;5.624;2023-03-25T08:08:36;15.27;;;4.30;;
53875;SDS011;39789;53.216;5.624;2023-03-25T08:11:02;24.10;;;5.80;;
53875;SDS011;39789;53.216;5.624;2023-03-25T08:13:28;22.98;;;5.28;;
53875;SDS011;39789;53.216;5.624;2023-03-25T08:15:54;23.42;;;5.20;;
53875;SDS011;39789;53.216;5.624;2023-03-25T08:18:20;18.35;;;4.57;;
53875;SDS011;39789;53.216;5.624;2023-03-25T08:20:49;18.67;;;5.43;;
53875;SDS011;39789;53.216;5.624;2023-03-25T08:23:15;20.23;;;4.50;;
53875;SDS011;39789;53.216;5.624;2023-03-25T08:25:48;20.15;;;4.30;;
53875;SDS011;39789;53.216;5.624;2023-03-25T08:28:15;19.25;;;4.57;;
53875;SDS011;39789;53.216;5.624;2023-03-25T08:30:45;22.25;;;5.07;;
53875;SDS011;39789;53.216;5.624;2023-03-25T08:33:13;19.75;;;4.22;;
53875;SDS011;39789;53.216;5.624;2023-03-25T08:35:42;20.88;;;4.80;;
53875;SDS011;39789;53.216;5.624;2023-03-25T08:38:08;16.30;;;4.68;;
53875;SDS011;39789;53.216;5.624;2023-03-25T08:40:34;20.35;;;4.32;;
53875;SDS011;39789;53.216;5.624;2023-03-25T08:43:02;17.25;;;4.55;;
53875;SDS011;39789;53.216;5.624;2023-03-25T08:45:29;24.23;;;5.28;;
53875;SDS011;39789;53.216;5.624;2023-03-25T08:47:59;18.35;;;5.28;;
53875;SDS011;39789;53.216;5.624;2023-03-25T08:50:26;18.73;;;4.18;;
53875;SDS011;39789;53.216;5.624;2023-03-25T08:52:52;16.35;;;6.25;;
53875;SDS011;39789;53.216;5.624;2023-03-25T08:55:21;26.27;;;5.43;;
53875;SDS011;39789;53.216;5.624;2023-03-25T08:57:47;20.20;;;5.43;;
53875;SDS011;39789;53.216;5.624;2023-03-25T09:00:13;17.40;;;4.43;;
53875;SDS011;39789;53.216;5.624;2023-03-25T09:02:42;21.67;;;4.43;;
53875;SDS011;39789;53.216;5.624;2023-03-25T09:05:09;16.40;;;4.13;;
53875;SDS011;39789;53.216;5.624;2023-03-25T09:07:36;16.98;;;4.75;;
53875;SDS011;39789;53.216;5.624;2023-03-25T09:10:03;19.15;;;4.25;;
53875;SDS011;39789;53.216;5.624;2023-03-25T09:12:31;20.20;;;4.20;;
53875;SDS011;39789;53.216;5.624;2023-03-25T09:14:57;22.95;;;5.63;;
53875;SDS011;39789;53.216;5.624;2023-03-25T09:17:22;16.85;;;4.45;;
53875;SDS011;39789;53.216;5.624;2023-03-25T09:19:48;16.83;;;4.43;;
53875;SDS011;39789;53.216;5.624;2023-03-25T09:22:14;25.58;;;4.63;;
53875;SDS011;39789;53.216;5.624;2023-03-25T09:24:40;19.50;;;4.78;;
53875;SDS011;39789;53.216;5.624;2023-03-25T09:27:05;16.30;;;4.53;;
53875;SDS011;39789;53.216;5.624;2023-03-25T09:29:31;23.23;;;4.10;;
53875;SDS011;39789;53.216;5.624;2023-03-25T09:31:57;19.98;;;5.15;;
53875;SDS011;39789;53.216;5.624;2023-03-25T09:34:23;19.98;;;4.35;;
53875;SDS011;39789;53.216;5.624;2023-03-25T09:36:49;19.65;;;5.47;;
53875;SDS011;39789;53.216;5.624;2023-03-25T09:39:15;22.45;;;5.10;;
53875;SDS011;39789;53.216;5.624;2023-03-25T09:42:00;20.92;;;4.97;;
53875;SDS011;39789;53.216;5.624;2023-03-25T09:44:46;17.35;;;4.57;;
53875;SDS011;39789;53.216;5.624;2023-03-25T09:47:15;19.80;;;4.35;;
53875;SDS011;39789;53.216;5.624;2023-03-25T09:49:44;22.30;;;4.90;;
53875;SDS011;39789;53.216;5.624;2023-03-25T09:52:18;18.02;;;5.45;;
53875;SDS011;39789;53.216;5.624;2023-03-25T09:54:49;13.60;;;4.03;;
53875;SDS011;39789;53.216;5.624;2023-03-25T09:57:20;21.20;;;5.03;;
53875;SDS011;39789;53.216;5.624;2023-03-25T09:59:51;18.63;;;4.15;;
53875;SDS011;39789;53.216;5.624;2023-03-25T10:10:31;30.10;;;5.55;;
53875;SDS011;39789;53.216;5.624;2023-03-25T10:13:11;17.50;;;4.72;;
53875;SDS011;39789;53.216;5.624;2023-03-25T10:15:52;17.83;;;4.72;;
53875;SDS011;39789;53.216;5.624;2023-03-25T10:23:42;20.70;;;5.00;;
53875;SDS011;39789;53.216;5.624;2023-03-25T10:26:26;21.05;;;4.93;;
53875;SDS011;39789;53.216;5.624;2023-03-25T10:29:02;15.73;;;5.03;;
53875;SDS011;39789;53.216;5.624;2023-03-25T10:31:32;22.50;;;4.78;;
53875;SDS011;39789;53.216;5.624;2023-03-25T10:34:04;17.42;;;5.50;;
53875;SDS011;39789;53.216;5.624;2023-03-25T10:36:37;17.10;;;4.60;;
53875;SDS011;39789;53.216;5.624;2023-03-25T10:39:19;24.02;;;4.85;;
53875;SDS011;39789;53.216;5.624;2023-03-25T10:41:47;19.10;;;4.43;;
53875;SDS011;39789;53.216;5.624;2023-03-25T10:44:23;24.35;;;4.45;;
53875;SDS011;39789;53.216;5.624;2023-03-25T10:46:53;23.15;;;5.53;;
53875;SDS011;39789;53.216;5.624;2023-03-25T10:49:29;18.33;;;4.68;;
53875;SDS011;39789;53.216;5.624;2023-03-25T10:51:56;19.67;;;4.80;;
53875;SDS011;39789;53.216;5.624;2023-03-25T10:54:30;18.35;;;4.10;;
53875;SDS011;39789;53.216;5.624;2023-03-25T10:57:01;25.35;;;5.00;;
53875;SDS011;39789;53.216;5.624;2023-03-25T10:59:32;22.75;;;4.18;;
53875;SDS011;39789;53.216;5.624;2023-03-25T11:02:04;13.95;;;4.88;;
53875;SDS011;39789;53.216;5.624;2023-03-25T11:04:42;24.08;;;5.18;;
53875;SDS011;39789;53.216;5.624;2023-03-25T11:07:14;24.42;;;5.43;;
53875;SDS011;39789;53.216;5.624;2023-03-25T11:09:44;20.23;;;4.45;;
53875;SDS011;39789;53.216;5.624;2023-03-25T11:12:10;18.30;;;4.85;;
53875;SDS011;39789;53.216;5.624;2023-03-25T11:14:37;23.17;;;4.65;;
53875;SDS011;39789;53.216;5.624;2023-03-25T11:17:11;18.48;;;5.40;;
53875;SDS011;39789;53.216;5.624;2023-03-25T11:19:42;21.90;;;4.95;;
53875;SDS011;39789;53.216;5.624;2023-03-25T11:22:29;20.45;;;5.20;;
53875;SDS011;39789;53.216;5.624;2023-03-25T11:25:03;16.80;;;4.78;;
53875;SDS011;39789;53.216;5.624;2023-03-25T11:27:39;19.13;;;4.57;;
53875;SDS011;39789;53.216;5.624;2023-03-25T11:30:16;23.90;;;5.43;;
53875;SDS011;39789;53.216;5.624;2023-03-25T11:32:45;26.02;;;5.55;;
53875;SDS011;39789;53.216;5.624;2023-03-25T11:35:28;19.25;;;5.60;;
53875;SDS011;39789;53.216;5.624;2023-03-25T11:37:57;23.30;;;4.95;;
53875;SDS011;39789;53.216;5.624;2023-03-25T11:40:24;19.33;;;5.53;;
53875;SDS011;39789;53.216;5.624;2023-03-25T11:42:52;20.75;;;5.63;;
53875;SDS011;39789;53.216;5.624;2023-03-25T11:45:22;16.40;;;4.88;;
53875;SDS011;39789;53.216;5.624;2023-03-25T11:47:51;19.75;;;6.00;;
53875;SDS011;39789;53.216;5.624;2023-03-25T11:50:23;27.08;;;5.82;;
53875;SDS011;39789;53.216;5.624;2023-03-25T11:52:54;15.80;;;3.83;;
53875;SDS011;39789;53.216;5.624;2023-03-25T11:55:23;22.77;;;5.75;;
53875;SDS011;39789;53.216;5.624;2023-03-25T11:58:11;19.08;;;4.53;;
53875;SDS011;39789;53.216;5.624;2023-03-25T12:00:47;17.75;;;4.22;;
53875;SDS011;39789;53.216;5.624;2023-03-25T12:03:15;22.15;;;4.78;;
53875;SDS011;39789;53.216;5.624;2023-03-25T12:11:30;18.80;;;5.88;;
53875;SDS011;39789;53.216;5.624;2023-03-25T12:14:18;16.23;;;4.97;;
53875;SDS011;39789;53.216;5.624;2023-03-25T12:19:51;24.42;;;5.30;;
53875;SDS011;39789;53.216;5.624;2023-03-25T12:23:15;23.02;;;5.40;;
53875;SDS011;39789;53.216;5.624;2023-03-25T12:28:46;28.35;;;4.80;;
53875;SDS011;39789;53.216;5.624;2023-03-25T12:36:46;11.77;;;3.28;;
53875;SDS011;39789;53.216;5.624;2023-03-25T12:39:31;8.55;;;2.47;;
53875;SDS011;39789;53.216;5.624;2023-03-25T12:42:23;7.43;;;1.45;;
53875;SDS011;39789;53.216;5.624;2023-03-25T12:47:54;13.52;;;3.40;;
53875;SDS011;39789;53.216;5.624;2023-03-25T12:50:29;17.05;;;4.57;;
53875;SDS011;39789;53.216;5.624;2023-03-25T13:04:16;24.05;;;5.05;;
53875;SDS011;39789;53.216;5.624;2023-03-25T13:07:04;22.23;;;4.25;;
53875;SDS011;39789;53.216;5.624;2023-03-25T13:17:53;14.63;;;3.13;;
53875;SDS011;39789;53.216;5.624;2023-03-25T13:20:40;15.18;;;4.07;;
53875;SDS011;39789;53.216;5.624;2023-03-25T13:23:10;16.00;;;3.33;;
53875;SDS011;39789;53.216;5.624;2023-03-25T13:25:53;12.63;;;3.72;;
53875;SDS011;39789;53.216;5.624;2023-03-25T13:31:36;18.85;;;4.10;;
53875;SDS011;39789;53.216;5.624;2023-03-25T13:34:14;21.00;;;3.95;;
53875;SDS011;39789;53.216;5.624;2023-03-25T13:37:30;19.55;;;4.05;;
53875;SDS011;39789;53.216;5.624;2023-03-25T13:42:40;16.13;;;3.88;;
53875;SDS011;39789;53.216;5.624;2023-03-25T13:45:17;18.17;;;4.47;;
53875;SDS011;39789;53.216;5.624;2023-03-25T13:47:47;16.17;;;3.92;;
53875;SDS011;39789;53.216;5.624;2023-03-25T13:50:27;16.38;;;4.28;;
53875;SDS011;39789;53.216;5.624;2023-03-25T13:52:57;15.25;;;3.97;;
53875;SDS011;39789;53.216;5.624;2023-03-25T13:55:35;14.43;;;3.35;;
53875;SDS011;39789;53.216;5.624;2023-03-25T13:58:10;15.93;;;3.60;;
53875;SDS011;39789;53.216;5.624;2023-03-25T14:06:30;15.40;;;4.10;;
53875;SDS011;39789;53.216;5.624;2023-03-25T14:11:47;16.83;;;4.38;;
53875;SDS011;39789;53.216;5.624;2023-03-25T14:14:19;15.45;;;4.18;;
53875;SDS011;39789;53.216;5.624;2023-03-25T14:16:48;12.32;;;3.20;;
53875;SDS011;39789;53.216;5.624;2023-03-25T14:19:29;10.68;;;3.25;;
53875;SDS011;39789;53.216;5.624;2023-03-25T14:21:58;12.10;;;3.28;;
53875;SDS011;39789;53.216;5.624;2023-03-25T14:24:31;11.25;;;3.15;;
53875;SDS011;39789;53.216;5.624;2023-03-25T14:27:06;9.35;;;3.70;;
53875;SDS011;39789;53.216;5.624;2023-03-25T14:29:51;19.00;;;3.65;;
53875;SDS011;39789;53.216;5.624;2023-03-25T14:32:44;9.48;;;2.50;;
53875;SDS011;39789;53.216;5.624;2023-03-25T14:57:08;11.30;;;2.95;;
53875;SDS011;39789;53.216;5.624;2023-03-25T14:59:47;11.13;;;3.08;;
53875;SDS011;39789;53.216;5.624;2023-03-25T15:02:26;10.73;;;2.97;;
53875;SDS011;39789;53.216;5.624;2023-03-25T15:07:48;14.27;;;3.05;;
53875;SDS011;39789;53.216;5.624;2023-03-25T15:12:55;18.70;;;3.38;;
53875;SDS011;39789;53.216;5.624;2023-03-25T15:21:01;10.05;;;3.05;;
53875;SDS011;39789;53.216;5.624;2023-03-25T15:23:46;14.23;;;2.85;;
53875;SDS011;39789;53.216;5.624;2023-03-25T15:31:34;13.50;;;3.10;;
53875;SDS011;39789;53.216;5.624;2023-03-25T15:34:14;10.15;;;2.75;;
53875;SDS011;39789;53.216;5.624;2023-03-25T15:37:07;11.30;;;2.70;;
53875;SDS011;39789;53.216;5.624;2023-03-25T15:42:41;13.02;;;3.65;;
53875;SDS011;39789;53.216;5.624;2023-03-25T15:48:17;9.95;;;3.20;;
53875;SDS011;39789;53.216;5.624;2023-03-25T15:56:26;10.18;;;3.13;;
53875;SDS011;39789;53.216;5.624;2023-03-25T16:01:34;13.05;;;2.80;;
53875;SDS011;39789;53.216;5.624;2023-03-25T16:04:10;6.82;;;2.90;;
53875;SDS011;39789;53.216;5.624;2023-03-25T16:06:52;10.32;;;2.85;;
53875;SDS011;39789;53.216;5.624;2023-03-25T16:09:22;9.82;;;2.85;;
53875;SDS011;39789;53.216;5.624;2023-03-25T16:11:50;12.50;;;2.80;;
53875;SDS011;39789;53.216;5.624;2023-03-25T16:14:18;12.05;;;3.50;;
53875;SDS011;39789;53.216;5.624;2023-03-25T16:16:48;13.27;;;3.55;;
53875;SDS011;39789;53.216;5.624;2023-03-25T16:19:29;9.82;;;2.90;;
53875;SDS011;39789;53.216;5.624;2023-03-25T16:22:21;14.25;;;3.55;;
53875;SDS011;39789;53.216;5.624;2023-03-25T16:24:58;9.25;;;2.88;;
53875;SDS011;39789;53.216;5.624;2023-03-25T16:27:30;8.65;;;2.55;;
53875;SDS011;39789;53.216;5.624;2023-03-25T16:30:00;11.02;;;3.55;;
53875;SDS011;39789;53.216;5.624;2023-03-25T16:32:30;13.35;;;2.78;;
53875;SDS011;39789;53.216;5.624;2023-03-25T16:34:58;11.38;;;2.92;;
53875;SDS011;39789;53.216;5.624;2023-03-25T16:37:24;12.07;;;2.88;;
53875;SDS011;39789;53.216;5.624;2023-03-25T16:39:51;9.82;;;3.15;;
53875;SDS011;39789;53.216;5.624;2023-03-25T16:42:28;13.45;;;2.83;;
53875;SDS011;39789;53.216;5.624;2023-03-25T16:44:58;12.75;;;3.90;;
53875;SDS011;39789;53.216;5.624;2023-03-25T16:47:24;16.80;;;3.58;;
53875;SDS011;39789;53.216;5.624;2023-03-25T16:49:51;10.70;;;3.72;;
53875;SDS011;39789;53.216;5.624;2023-03-25T16:52:24;18.00;;;3.83;;
53875;SDS011;39789;53.216;5.624;2023-03-25T16:57:36;17.83;;;3.85;;
53875;SDS011;39789;53.216;5.624;2023-03-25T17:00:12;13.68;;;3.40;;
53875;SDS011;39789;53.216;5.624;2023-03-25T17:02:45;20.55;;;4.38;;
53875;SDS011;39789;53.216;5.624;2023-03-25T17:05:23;14.82;;;3.55;;
53875;SDS011;39789;53.216;5.624;2023-03-25T17:07:55;18.58;;;3.78;;
53875;SDS011;39789;53.216;5.624;2023-03-25T17:10:25;17.83;;;3.90;;
53875;SDS011;39789;53.216;5.624;2023-03-25T17:13:09;12.98;;;3.88;;
53875;SDS011;39789;53.216;5.624;2023-03-25T17:15:35;15.73;;;4.30;;
53875;SDS011;39789;53.216;5.624;2023-03-25T17:18:02;16.80;;;4.30;;
53875;SDS011;39789;53.216;5.624;2023-03-25T17:20:41;14.27;;;3.72;;
53875;SDS011;39789;53.216;5.624;2023-03-25T17:31:15;11.98;;;3.50;;
53875;SDS011;39789;53.216;5.624;2023-03-25T17:33:49;15.30;;;3.63;;
53875;SDS011;39789;53.216;5.624;2023-03-25T17:36:23;18.02;;;3.47;;
53875;SDS011;39789;53.216;5.624;2023-03-25T17:38:50;13.63;;;3.33;;
53875;SDS011;39789;53.216;5.624;2023-03-25T17:41:20;18.40;;;4.25;;
53875;SDS011;39789;53.216;5.624;2023-03-25T17:43:47;19.00;;;3.63;;
53875;SDS011;39789;53.216;5.624;2023-03-25T17:46:19;13.77;;;3.40;;